Terminal Aerodrome Forecast
Issued by NWS

Current Version | Previous Version | Text Only | Print | Product List | Glossary On
Versions: 1 2 3 4 5 6 7 8 9 10 11 12 13 14
000
FTUS46 KSTO 200532
TAFSMF
TAF
KSMF 200532Z 2006/2106 16005KT P6SM OVC100
     FM201400 14007KT 6SM BR OVC035
      TEMPO 2014/2018 4SM -SHRA OVC015
     FM201800 15006KT P6SM OVC050=

USA.gov is the U.S. government's official web portal to all federal, state and local government web resources and services.